sensor_id;sensor_type;location;lat;lon;timestamp;pressure;altitude;pressure_sealevel;temperature;humidity
11676;BME280;5894;42.768;23.404;2023-02-18T00:02:08;96429.31;;;3.12;92.77
11676;BME280;5894;42.768;23.404;2023-02-18T00:04:34;96426.97;;;3.10;92.34
11676;BME280;5894;42.768;23.404;2023-02-18T00:07:02;96412.47;;;3.03;93.98
11676;BME280;5894;42.768;23.404;2023-02-18T00:09:29;96407.97;;;2.98;95.01
11676;BME280;5894;42.768;23.404;2023-02-18T00:11:56;96416.91;;;3.02;94.44
11676;BME280;5894;42.768;23.404;2023-02-18T00:14:23;96418.72;;;3.02;94.65
11676;BME280;5894;42.768;23.404;2023-02-18T00:16:50;96389.66;;;2.81;94.10
11676;BME280;5894;42.768;23.404;2023-02-18T00:19:18;96414.09;;;2.92;95.57
11676;BME280;5894;42.768;23.404;2023-02-18T00:21:46;96408.34;;;2.90;96.08
11676;BME280;5894;42.768;23.404;2023-02-18T00:24:15;96376.00;;;2.74;95.16
11676;BME280;5894;42.768;23.404;2023-02-18T00:26:43;96368.00;;;2.64;93.83
11676;BME280;5894;42.768;23.404;2023-02-18T00:29:10;96375.50;;;2.89;93.37
11676;BME280;5894;42.768;23.404;2023-02-18T00:31:38;96378.59;;;2.74;93.41
11676;BME280;5894;42.768;23.404;2023-02-18T00:34:05;96377.47;;;2.70;94.82
11676;BME280;5894;42.768;23.404;2023-02-18T00:36:33;96388.16;;;2.69;93.48
11676;BME280;5894;42.768;23.404;2023-02-18T00:39:03;96396.22;;;2.44;97.10
11676;BME280;5894;42.768;23.404;2023-02-18T00:41:33;96387.28;;;2.40;97.98
11676;BME280;5894;42.768;23.404;2023-02-18T00:44:00;96370.19;;;2.44;96.80
11676;BME280;5894;42.768;23.404;2023-02-18T00:46:28;96393.97;;;2.47;97.85
11676;BME280;5894;42.768;23.404;2023-02-18T00:48:55;96368.31;;;2.16;99.63
11676;BME280;5894;42.768;23.404;2023-02-18T00:51:22;96364.94;;;2.04;100.00
11676;BME280;5894;42.768;23.404;2023-02-18T00:53:49;96330.00;;;1.88;100.00
11676;BME280;5894;42.768;23.404;2023-02-18T00:56:17;96360.31;;;2.06;100.00
11676;BME280;5894;42.768;23.404;2023-02-18T00:58:45;96340.97;;;1.90;100.00
11676;BME280;5894;42.768;23.404;2023-02-18T01:01:12;96390.59;;;2.35;100.00
11676;BME280;5894;42.768;23.404;2023-02-18T01:03:40;96380.63;;;2.32;100.00
11676;BME280;5894;42.768;23.404;2023-02-18T01:06:09;96349.09;;;2.17;100.00
11676;BME280;5894;42.768;23.404;2023-02-18T01:08:36;96376.91;;;2.28;100.00
11676;BME280;5894;42.768;23.404;2023-02-18T01:11:06;96371.72;;;2.16;100.00
11676;BME280;5894;42.768;23.404;2023-02-18T01:13:34;96310.78;;;1.77;100.00
11676;BME280;5894;42.768;23.404;2023-02-18T01:16:02;96355.63;;;2.19;100.00
11676;BME280;5894;42.768;23.404;2023-02-18T01:18:29;96353.03;;;2.19;100.00
11676;BME280;5894;42.768;23.404;2023-02-18T01:20:56;96333.16;;;2.02;100.00
11676;BME280;5894;42.768;23.404;2023-02-18T01:23:23;96355.63;;;2.31;100.00
11676;BME280;5894;42.768;23.404;2023-02-18T01:25:50;96349.09;;;2.17;100.00
11676;BME280;5894;42.768;23.404;2023-02-18T01:28:18;96350.31;;;2.26;100.00
11676;BME280;5894;42.768;23.404;2023-02-18T01:30:45;96351.44;;;2.30;100.00
11676;BME280;5894;42.768;23.404;2023-02-18T01:33:13;96357.44;;;2.31;100.00
11676;BME280;5894;42.768;23.404;2023-02-18T01:35:40;96307.28;;;1.83;100.00
11676;BME280;5894;42.768;23.404;2023-02-18T01:38:08;96373.19;;;2.24;100.00
11676;BME280;5894;42.768;23.404;2023-02-18T01:40:36;96306.25;;;1.73;100.00
11676;BME280;5894;42.768;23.404;2023-02-18T01:43:10;96283.09;;;1.60;100.00
11676;BME280;5894;42.768;23.404;2023-02-18T01:45:48;96361.31;;;2.05;100.00
11676;BME280;5894;42.768;23.404;2023-02-18T01:48:21;96255.72;;;1.45;100.00
11676;BME280;5894;42.768;23.404;2023-02-18T01:50:52;96364.94;;;2.04;100.00
11676;BME280;5894;42.768;23.404;2023-02-18T01:53:22;96342.31;;;1.81;100.00
11676;BME280;5894;42.768;23.404;2023-02-18T01:55:50;96368.34;;;2.04;100.00
11676;BME280;5894;42.768;23.404;2023-02-18T01:58:17;96368.78;;;2.01;100.00
11676;BME280;5894;42.768;23.404;2023-02-18T02:00:45;96368.34;;;2.04;100.00
11676;BME280;5894;42.768;23.404;2023-02-18T02:03:13;96366.53;;;2.05;100.00
11676;BME280;5894;42.768;23.404;2023-02-18T02:05:43;96329.44;;;1.86;100.00
11676;BME280;5894;42.768;23.404;2023-02-18T02:08:15;96358.72;;;2.16;100.00
11676;BME280;5894;42.768;23.404;2023-02-18T02:10:57;96346.97;;;1.91;100.00
11676;BME280;5894;42.768;23.404;2023-02-18T02:13:36;96374.09;;;1.95;100.00
11676;BME280;5894;42.768;23.404;2023-02-18T02:16:09;96382.56;;;1.78;100.00
11676;BME280;5894;42.768;23.404;2023-02-18T02:18:50;96382.78;;;1.54;100.00
11676;BME280;5894;42.768;23.404;2023-02-18T02:24:52;96375.88;;;1.06;100.00
11676;BME280;5894;42.768;23.404;2023-02-18T02:27:24;96365.69;;;0.93;100.00
11676;BME280;5894;42.768;23.404;2023-02-18T02:36:21;96357.13;;;0.74;100.00
11676;BME280;5894;42.768;23.404;2023-02-18T02:38:55;96374.97;;;0.70;100.00
11676;BME280;5894;42.768;23.404;2023-02-18T02:41:38;96375.34;;;0.86;100.00
11676;BME280;5894;42.768;23.404;2023-02-18T02:44:17;96355.22;;;0.69;100.00
11676;BME280;5894;42.768;23.404;2023-02-18T02:46:46;96367.59;;;0.67;100.00
11676;BME280;5894;42.768;23.404;2023-02-18T02:49:27;96363.75;;;0.40;100.00
11676;BME280;5894;42.768;23.404;2023-02-18T02:52:02;96383.50;;;0.59;100.00
11676;BME280;5894;42.768;23.404;2023-02-18T02:54:30;96391.91;;;0.55;100.00
11676;BME280;5894;42.768;23.404;2023-02-18T02:57:08;96309.28;;;0.04;100.00
11676;BME280;5894;42.768;23.404;2023-02-18T03:00:10;96375.47;;;0.43;100.00
11676;BME280;5894;42.768;23.404;2023-02-18T03:02:50;96377.28;;;0.42;100.00
11676;BME280;5894;42.768;23.404;2023-02-18T03:05:27;96379.41;;;0.52;100.00
11676;BME280;5894;42.768;23.404;2023-02-18T03:08:11;96362.94;;;0.21;100.00
11676;BME280;5894;42.768;23.404;2023-02-18T03:10:52;96371.25;;;0.48;100.00
11676;BME280;5894;42.768;23.404;2023-02-18T03:13:32;96317.13;;;0.15;100.00
11676;BME280;5894;42.768;23.404;2023-02-18T03:16:10;96229.94;;;-0.34;100.00
11676;BME280;5894;42.768;23.404;2023-02-18T03:18:40;96373.38;;;0.69;100.00
11676;BME280;5894;42.768;23.404;2023-02-18T03:21:13;96377.63;;;0.82;100.00
11676;BME280;5894;42.768;23.404;2023-02-18T03:23:47;96375.94;;;0.88;100.00
11676;BME280;5894;42.768;23.404;2023-02-18T03:26:16;96338.91;;;0.62;100.00
11676;BME280;5894;42.768;23.404;2023-02-18T03:28:44;96389.44;;;1.08;100.00
11676;BME280;5894;42.768;23.404;2023-02-18T03:31:15;96404.28;;;1.19;100.00
11676;BME280;5894;42.768;23.404;2023-02-18T03:33:47;96393.66;;;1.21;100.00
11676;BME280;5894;42.768;23.404;2023-02-18T03:36:16;96392.19;;;1.25;100.00
11676;BME280;5894;42.768;23.404;2023-02-18T03:38:50;96401.72;;;1.31;100.00
11676;BME280;5894;42.768;23.404;2023-02-18T03:41:19;96375.59;;;1.26;100.00
11676;BME280;5894;42.768;23.404;2023-02-18T03:43:50;96342.56;;;1.03;100.00
11676;BME280;5894;42.768;23.404;2023-02-18T03:46:17;96402.91;;;1.17;100.00
11676;BME280;5894;42.768;23.404;2023-02-18T03:48:44;96398.19;;;1.25;100.00
11676;BME280;5894;42.768;23.404;2023-02-18T03:51:11;96385.56;;;0.99;100.00
11676;BME280;5894;42.768;23.404;2023-02-18T03:53:37;96372.53;;;0.87;100.00
11676;BME280;5894;42.768;23.404;2023-02-18T03:56:06;96393.94;;;1.01;100.00
11676;BME280;5894;42.768;23.404;2023-02-18T03:58:33;96406.97;;;1.13;100.00
11676;BME280;5894;42.768;23.404;2023-02-18T04:01:00;96325.28;;;0.67;100.00
11676;BME280;5894;42.768;23.404;2023-02-18T04:03:27;96396.69;;;1.18;100.00
11676;BME280;5894;42.768;23.404;2023-02-18T04:05:54;96416.31;;;1.32;100.00
11676;BME280;5894;42.768;23.404;2023-02-18T04:08:20;96387.00;;;1.13;100.00
11676;BME280;5894;42.768;23.404;2023-02-18T04:10:47;96418.69;;;1.33;100.00
11676;BME280;5894;42.768;23.404;2023-02-18T04:13:16;96410.09;;;1.33;100.00
11676;BME280;5894;42.768;23.404;2023-02-18T04:15:43;96318.69;;;0.83;100.00
11676;BME280;5894;42.768;23.404;2023-02-18T04:18:10;96392.81;;;1.38;100.00
11676;BME280;5894;42.768;23.404;2023-02-18T04:20:37;96409.41;;;1.37;100.00
11676;BME280;5894;42.768;23.404;2023-02-18T04:23:04;96388.78;;;1.13;100.00
11676;BME280;5894;42.768;23.404;2023-02-18T04:25:31;96370.22;;;0.49;100.00
11676;BME280;5894;42.768;23.404;2023-02-18T04:27:58;96405.06;;;0.90;100.00
11676;BME280;5894;42.768;23.404;2023-02-18T04:30:26;96404.47;;;0.58;100.00
11676;BME280;5894;42.768;23.404;2023-02-18T04:32:53;96372.81;;;-0.06;100.00
11676;BME280;5894;42.768;23.404;2023-02-18T04:35:20;96378.25;;;-0.32;100.00
11676;BME280;5894;42.768;23.404;2023-02-18T04:37:47;96370.38;;;-0.44;100.00
11676;BME280;5894;42.768;23.404;2023-02-18T04:40:14;96403.38;;;-0.32;100.00
11676;BME280;5894;42.768;23.404;2023-02-18T04:42:42;96386.22;;;-0.58;100.00
11676;BME280;5894;42.768;23.404;2023-02-18T04:45:09;96403.63;;;-0.65;100.00
11676;BME280;5894;42.768;23.404;2023-02-18T04:47:37;96415.84;;;-0.79;100.00
11676;BME280;5894;42.768;23.404;2023-02-18T04:50:05;96408.28;;;-0.81;100.00
11676;BME280;5894;42.768;23.404;2023-02-18T04:52:32;96403.53;;;-0.84;100.00
11676;BME280;5894;42.768;23.404;2023-02-18T04:54:59;96402.91;;;-0.79;100.00
11676;BME280;5894;42.768;23.404;2023-02-18T04:57:25;96412.53;;;-0.61;100.00
11676;BME280;5894;42.768;23.404;2023-02-18T04:59:52;96407.75;;;-0.58;100.00
11676;BME280;5894;42.768;23.404;2023-02-18T05:02:19;96395.28;;;-0.43;100.00
11676;BME280;5894;42.768;23.404;2023-02-18T05:04:47;96395.25;;;-0.18;100.00
11676;BME280;5894;42.768;23.404;2023-02-18T05:07:14;96383.59;;;-0.09;100.00
11676;BME280;5894;42.768;23.404;2023-02-18T05:09:41;96349.09;;;-0.09;100.00
11676;BME280;5894;42.768;23.404;2023-02-18T05:12:08;96358.06;;;0.13;100.00
11676;BME280;5894;42.768;23.404;2023-02-18T05:14:35;96366.72;;;0.25;100.00
11676;BME280;5894;42.768;23.404;2023-02-18T05:17:01;96376.81;;;0.52;100.00
11676;BME280;5894;42.768;23.404;2023-02-18T05:19:28;96377.84;;;0.62;100.00
11676;BME280;5894;42.768;23.404;2023-02-18T05:21:57;96380.91;;;0.59;100.00
11676;BME280;5894;42.768;23.404;2023-02-18T05:24:23;96395.47;;;0.90;100.00
11676;BME280;5894;42.768;23.404;2023-02-18T05:26:50;96381.22;;;0.81;100.00
11676;BME280;5894;42.768;23.404;2023-02-18T05:29:17;96398.03;;;1.08;100.00
11676;BME280;5894;42.768;23.404;2023-02-18T05:31:44;96382.53;;;1.02;100.00
11676;BME280;5894;42.768;23.404;2023-02-18T05:34:10;96350.19;;;0.86;100.00
11676;BME280;5894;42.768;23.404;2023-02-18T05:36:37;96388.44;;;1.09;100.00
11676;BME280;5894;42.768;23.404;2023-02-18T05:39:05;96382.81;;;1.12;100.00
11676;BME280;5894;42.768;23.404;2023-02-18T05:41:32;96394.25;;;1.23;100.00
11676;BME280;5894;42.768;23.404;2023-02-18T05:43:59;96407.81;;;1.36;100.00
11676;BME280;5894;42.768;23.404;2023-02-18T05:46:43;96412.00;;;1.37;100.00
11676;BME280;5894;42.768;23.404;2023-02-18T05:49:10;96414.28;;;1.34;100.00
11676;BME280;5894;42.768;23.404;2023-02-18T05:51:37;96313.09;;;0.67;100.00
11676;BME280;5894;42.768;23.404;2023-02-18T05:54:05;96390.34;;;1.02;100.00
11676;BME280;5894;42.768;23.404;2023-02-18T05:56:32;96414.41;;;1.09;100.00
11676;BME280;5894;42.768;23.404;2023-02-18T05:58:59;96382.50;;;0.90;100.00
11676;BME280;5894;42.768;23.404;2023-02-18T06:01:26;96426.59;;;1.08;100.00
11676;BME280;5894;42.768;23.404;2023-02-18T06:03:52;96425.03;;;1.07;100.00
11676;BME280;5894;42.768;23.404;2023-02-18T06:06:19;96420.75;;;1.13;100.00
11676;BME280;5894;42.768;23.404;2023-02-18T06:08:46;96415.69;;;0.88;100.00
11676;BME280;5894;42.768;23.404;2023-02-18T06:11:14;96418.81;;;0.79;100.00
11676;BME280;5894;42.768;23.404;2023-02-18T06:13:41;96413.19;;;0.63;100.00
11676;BME280;5894;42.768;23.404;2023-02-18T06:16:08;96406.34;;;0.69;100.00
11676;BME280;5894;42.768;23.404;2023-02-18T06:18:34;96411.69;;;0.56;100.00
11676;BME280;5894;42.768;23.404;2023-02-18T06:21:02;96387.16;;;0.33;100.00
11676;BME280;5894;42.768;23.404;2023-02-18T06:23:29;96391.00;;;0.31;100.00
11676;BME280;5894;42.768;23.404;2023-02-18T06:25:56;96412.19;;;0.46;100.00
11676;BME280;5894;42.768;23.404;2023-02-18T06:28:24;96411.09;;;0.54;100.00
11676;BME280;5894;42.768;23.404;2023-02-18T06:30:50;96399.66;;;0.61;100.00
11676;BME280;5894;42.768;23.404;2023-02-18T06:33:17;96411.81;;;0.79;100.00
11676;BME280;5894;42.768;23.404;2023-02-18T06:35:52;96407.19;;;0.81;100.00
11676;BME280;5894;42.768;23.404;2023-02-18T06:38:19;96419.34;;;0.99;100.00
11676;BME280;5894;42.768;23.404;2023-02-18T06:40:46;96379.31;;;0.88;100.00
11676;BME280;5894;42.768;23.404;2023-02-18T06:43:13;96406.22;;;1.24;100.00
11676;BME280;5894;42.768;23.404;2023-02-18T06:45:41;96395.59;;;1.25;100.00
11676;BME280;5894;42.768;23.404;2023-02-18T06:48:08;96405.81;;;1.38;100.00
11676;BME280;5894;42.768;23.404;2023-02-18T06:50:35;96400.63;;;1.50;100.00
11676;BME280;5894;42.768;23.404;2023-02-18T06:53:02;96393.31;;;1.70;100.00
11676;BME280;5894;42.768;23.404;2023-02-18T06:55:29;96399.53;;;1.81;100.00
11676;BME280;5894;42.768;23.404;2023-02-18T06:57:56;96400.78;;;1.90;100.00
11676;BME280;5894;42.768;23.404;2023-02-18T07:00:23;96406.22;;;2.00;100.00
11676;BME280;5894;42.768;23.404;2023-02-18T07:02:51;96411.31;;;2.07;100.00
11676;BME280;5894;42.768;23.404;2023-02-18T07:05:18;96391.03;;;2.20;100.00
11676;BME280;5894;42.768;23.404;2023-02-18T07:07:45;96351.47;;;2.07;100.00
11676;BME280;5894;42.768;23.404;2023-02-18T07:10:11;96389.56;;;2.48;100.00
11676;BME280;5894;42.768;23.404;2023-02-18T07:12:38;96375.25;;;2.50;100.00
11676;BME280;5894;42.768;23.404;2023-02-18T07:15:05;96394.25;;;2.63;100.00
11676;BME280;5894;42.768;23.404;2023-02-18T07:17:32;96374.16;;;2.86;100.00
11676;BME280;5894;42.768;23.404;2023-02-18T07:20:00;96388.50;;;3.01;100.00
11676;BME280;5894;42.768;23.404;2023-02-18T07:22:27;96390.34;;;3.17;100.00
11676;BME280;5894;42.768;23.404;2023-02-18T07:24:54;96392.78;;;3.23;100.00
11676;BME280;5894;42.768;23.404;2023-02-18T07:27:21;96394.09;;;3.38;100.00
11676;BME280;5894;42.768;23.404;2023-02-18T07:29:48;96399.56;;;3.53;100.00
11676;BME280;5894;42.768;23.404;2023-02-18T07:32:16;96394.59;;;3.68;100.00
11676;BME280;5894;42.768;23.404;2023-02-18T07:34:43;96399.72;;;3.80;100.00
11676;BME280;5894;42.768;23.404;2023-02-18T07:37:12;96363.50;;;3.66;100.00
11676;BME280;5894;42.768;23.404;2023-02-18T07:39:39;96366.28;;;3.93;100.00
11676;BME280;5894;42.768;23.404;2023-02-18T07:42:07;96371.53;;;4.15;100.00
11676;BME280;5894;42.768;23.404;2023-02-18T07:44:34;96367.22;;;4.26;100.00
11676;BME280;5894;42.768;23.404;2023-02-18T07:47:01;96374.94;;;4.37;100.00
11676;BME280;5894;42.768;23.404;2023-02-18T07:49:28;96383.22;;;4.51;100.00
11676;BME280;5894;42.768;23.404;2023-02-18T07:51:55;96372.47;;;4.48;100.00
11676;BME280;5894;42.768;23.404;2023-02-18T07:54:23;96388.34;;;4.63;100.00
11676;BME280;5894;42.768;23.404;2023-02-18T07:56:50;96302.09;;;4.14;100.00
11676;BME280;5894;42.768;23.404;2023-02-18T07:59:17;96378.03;;;4.78;100.00
11676;BME280;5894;42.768;23.404;2023-02-18T08:01:44;96380.28;;;4.91;100.00
11676;BME280;5894;42.768;23.404;2023-02-18T08:04:11;96381.75;;;5.04;100.00
11676;BME280;5894;42.768;23.404;2023-02-18T08:06:41;96370.91;;;5.17;100.00
11676;BME280;5894;42.768;23.404;2023-02-18T08:09:08;96378.69;;;5.39;100.00
11676;BME280;5894;42.768;23.404;2023-02-18T08:11:37;96327.84;;;5.30;100.00
11676;BME280;5894;42.768;23.404;2023-02-18T08:14:05;96363.19;;;5.64;100.00
11676;BME280;5894;42.768;23.404;2023-02-18T08:16:32;96381.91;;;5.83;100.00
11676;BME280;5894;42.768;23.404;2023-02-18T08:18:59;96372.38;;;5.99;100.00
11676;BME280;5894;42.768;23.404;2023-02-18T08:21:28;96381.41;;;6.18;100.00
11676;BME280;5894;42.768;23.404;2023-02-18T08:23:56;96366.78;;;6.22;100.00
11676;BME280;5894;42.768;23.404;2023-02-18T08:26:25;96357.41;;;6.36;99.25
11676;BME280;5894;42.768;23.404;2023-02-18T08:28:53;96361.16;;;6.50;100.00
11676;BME280;5894;42.768;23.404;2023-02-18T08:31:23;96357.00;;;6.64;96.35
11676;BME280;5894;42.768;23.404;2023-02-18T08:33:50;96364.63;;;6.71;93.48
11676;BME280;5894;42.768;23.404;2023-02-18T08:36:18;96358.88;;;6.74;93.10
11676;BME280;5894;42.768;23.404;2023-02-18T08:38:44;96374.41;;;6.91;94.16
11676;BME280;5894;42.768;23.404;2023-02-18T08:41:12;96375.22;;;7.02;94.50
11676;BME280;5894;42.768;23.404;2023-02-18T08:43:40;96351.63;;;7.02;94.71
11676;BME280;5894;42.768;23.404;2023-02-18T08:46:08;96368.47;;;7.26;91.56
11676;BME280;5894;42.768;23.404;2023-02-18T08:48:35;96369.78;;;7.33;90.38
11676;BME280;5894;42.768;23.404;2023-02-18T08:51:13;96239.34;;;6.63;90.08
11676;BME280;5894;42.768;23.404;2023-02-18T08:53:40;96375.31;;;7.57;90.54
11676;BME280;5894;42.768;23.404;2023-02-18T08:56:07;96340.13;;;7.38;87.22
11676;BME280;5894;42.768;23.404;2023-02-18T08:58:35;96367.44;;;7.67;87.40
11676;BME280;5894;42.768;23.404;2023-02-18T09:01:03;96304.44;;;7.47;86.66
11676;BME280;5894;42.768;23.404;2023-02-18T09:03:32;96353.00;;;7.85;85.29
11676;BME280;5894;42.768;23.404;2023-02-18T09:06:00;96349.53;;;8.00;85.17
11676;BME280;5894;42.768;23.404;2023-02-18T09:08:27;96342.97;;;8.07;85.18
11676;BME280;5894;42.768;23.404;2023-02-18T09:10:55;96333.53;;;8.01;83.53
11676;BME280;5894;42.768;23.404;2023-02-18T09:13:22;96345.56;;;8.23;82.33
11676;BME280;5894;42.768;23.404;2023-02-18T09:15:59;96351.31;;;8.45;81.52
11676;BME280;5894;42.768;23.404;2023-02-18T09:18:26;96317.72;;;8.32;77.87
11676;BME280;5894;42.768;23.404;2023-02-18T09:20:56;96347.56;;;8.71;74.42
11676;BME280;5894;42.768;23.404;2023-02-18T09:23:24;96284.59;;;8.36;68.92
11676;BME280;5894;42.768;23.404;2023-02-18T09:25:51;96348.47;;;8.96;69.68
11676;BME280;5894;42.768;23.404;2023-02-18T09:28:18;96339.72;;;9.05;66.63
11676;BME280;5894;42.768;23.404;2023-02-18T09:30:44;96340.22;;;9.12;62.86
11676;BME280;5894;42.768;23.404;2023-02-18T09:33:11;96285.56;;;8.99;61.95
11676;BME280;5894;42.768;23.404;2023-02-18T09:35:39;96270.78;;;9.08;61.19
11676;BME280;5894;42.768;23.404;2023-02-18T09:38:08;96327.56;;;9.53;59.29
11676;BME280;5894;42.768;23.404;2023-02-18T09:40:38;96321.38;;;9.68;57.69
11676;BME280;5894;42.768;23.404;2023-02-18T09:43:17;96310.47;;;9.80;56.00
11676;BME280;5894;42.768;23.404;2023-02-18T09:45:45;96317.53;;;10.13;55.10
11676;BME280;5894;42.768;23.404;2023-02-18T09:48:11;96334.31;;;10.27;54.52
11676;BME280;5894;42.768;23.404;2023-02-18T09:50:38;96321.97;;;10.47;53.35
11676;BME280;5894;42.768;23.404;2023-02-18T09:53:05;96327.91;;;10.57;52.40
11676;BME280;5894;42.768;23.404;2023-02-18T09:55:36;96309.13;;;10.59;52.76
11676;BME280;5894;42.768;23.404;2023-02-18T09:58:06;96327.94;;;10.76;50.53
11676;BME280;5894;42.768;23.404;2023-02-18T10:00:35;96310.44;;;10.80;50.42
11676;BME280;5894;42.768;23.404;2023-02-18T10:03:05;96295.41;;;10.81;48.96
11676;BME280;5894;42.768;23.404;2023-02-18T10:05:34;96276.41;;;10.60;48.99
11676;BME280;5894;42.768;23.404;2023-02-18T10:08:05;96312.63;;;10.97;49.00
11676;BME280;5894;42.768;23.404;2023-02-18T10:10:38;96301.28;;;10.96;47.86
11676;BME280;5894;42.768;23.404;2023-02-18T10:13:12;96297.75;;;11.01;47.76
11676;BME280;5894;42.768;23.404;2023-02-18T10:15:39;96303.41;;;11.13;48.16
11676;BME280;5894;42.768;23.404;2023-02-18T10:18:21;96304.63;;;11.21;47.76
11676;BME280;5894;42.768;23.404;2023-02-18T10:20:51;96212.41;;;10.73;48.10
11676;BME280;5894;42.768;23.404;2023-02-18T10:23:19;96285.63;;;11.37;47.50
11676;BME280;5894;42.768;23.404;2023-02-18T10:25:49;96292.03;;;11.50;47.11
11676;BME280;5894;42.768;23.404;2023-02-18T10:28:18;96285.84;;;11.41;47.25
11676;BME280;5894;42.768;23.404;2023-02-18T10:30:54;96298.50;;;11.58;47.68
11676;BME280;5894;42.768;23.404;2023-02-18T10:33:32;96279.50;;;11.56;47.44
11676;BME280;5894;42.768;23.404;2023-02-18T10:36:06;96278.06;;;11.63;48.01
11676;BME280;5894;42.768;23.404;2023-02-18T10:38:45;96256.91;;;11.63;46.91
11676;BME280;5894;42.768;23.404;2023-02-18T10:41:26;96271.88;;;11.87;47.63
11676;BME280;5894;42.768;23.404;2023-02-18T10:44:00;96275.63;;;11.99;47.62
11676;BME280;5894;42.768;23.404;2023-02-18T10:46:38;96162.59;;;11.50;45.34
11676;BME280;5894;42.768;23.404;2023-02-18T10:49:29;96245.38;;;12.19;45.53
11676;BME280;5894;42.768;23.404;2023-02-18T10:52:02;96266.03;;;12.44;44.20
11676;BME280;5894;42.768;23.404;2023-02-18T10:54:52;96254.47;;;12.54;44.50
11676;BME280;5894;42.768;23.404;2023-02-18T10:57:22;96256.97;;;12.59;44.00
11676;BME280;5894;42.768;23.404;2023-02-18T10:59:57;96243.38;;;12.66;43.54
11676;BME280;5894;42.768;23.404;2023-02-18T11:02:26;96251.38;;;12.74;43.19
11676;BME280;5894;42.768;23.404;2023-02-18T11:04:56;96234.88;;;12.77;43.36
11676;BME280;5894;42.768;23.404;2023-02-18T11:07:25;96229.13;;;12.75;43.57
11676;BME280;5894;42.768;23.404;2023-02-18T11:09:56;96225.47;;;12.85;44.15
11676;BME280;5894;42.768;23.404;2023-02-18T11:12:28;96191.09;;;12.71;43.89
11676;BME280;5894;42.768;23.404;2023-02-18T11:15:14;96220.53;;;12.92;43.24
11676;BME280;5894;42.768;23.404;2023-02-18T11:17:43;96210.31;;;12.99;43.77
11676;BME280;5894;42.768;23.404;2023-02-18T11:20:30;96194.84;;;12.93;43.63
11676;BME280;5894;42.768;23.404;2023-02-18T11:23:14;96199.91;;;13.03;43.58
11676;BME280;5894;42.768;23.404;2023-02-18T11:25:52;96207.34;;;13.14;43.37
11676;BME280;5894;42.768;23.404;2023-02-18T11:28:30;96192.16;;;13.06;43.15
11676;BME280;5894;42.768;23.404;2023-02-18T11:31:00;96169.09;;;13.07;42.64
11676;BME280;5894;42.768;23.404;2023-02-18T11:33:33;96211.72;;;13.41;42.92
11676;BME280;5894;42.768;23.404;2023-02-18T11:36:04;96210.81;;;13.46;42.45
11676;BME280;5894;42.768;23.404;2023-02-18T11:38:42;96201.34;;;13.53;42.50
11676;BME280;5894;42.768;23.404;2023-02-18T11:41:13;96141.31;;;13.18;42.29
11676;BME280;5894;42.768;23.404;2023-02-18T11:43:45;96158.19;;;13.31;42.31
11676;BME280;5894;42.768;23.404;2023-02-18T11:46:15;96186.41;;;13.57;42.77
11676;BME280;5894;42.768;23.404;2023-02-18T11:48:42;96192.81;;;13.65;43.01
11676;BME280;5894;42.768;23.404;2023-02-18T11:51:15;96185.97;;;13.64;43.67
11676;BME280;5894;42.768;23.404;2023-02-18T11:53:54;96171.63;;;13.65;43.98
11676;BME280;5894;42.768;23.404;2023-02-18T11:56:25;96170.13;;;13.81;43.35
11676;BME280;5894;42.768;23.404;2023-02-18T11:58:54;96161.59;;;14.02;42.87
11676;BME280;5894;42.768;23.404;2023-02-18T12:01:35;96118.38;;;13.92;43.36
11676;BME280;5894;42.768;23.404;2023-02-18T12:04:09;96160.09;;;14.26;43.37
11676;BME280;5894;42.768;23.404;2023-02-18T12:06:43;96154.00;;;14.17;44.03
11676;BME280;5894;42.768;23.404;2023-02-18T12:09:18;96149.31;;;14.14;44.14
11676;BME280;5894;42.768;23.404;2023-02-18T12:11:48;96146.19;;;14.12;44.81
11676;BME280;5894;42.768;23.404;2023-02-18T12:14:19;96135.56;;;14.12;43.97
11676;BME280;5894;42.768;23.404;2023-02-18T12:17:03;96096.38;;;13.92;44.22
11676;BME280;5894;42.768;23.404;2023-02-18T12:19:44;96115.44;;;14.03;44.66
11676;BME280;5894;42.768;23.404;2023-02-18T12:22:18;96127.50;;;14.26;44.09
11676;BME280;5894;42.768;23.404;2023-02-18T12:24:58;96124.06;;;14.25;43.74
11676;BME280;5894;42.768;23.404;2023-02-18T12:27:35;96120.47;;;14.30;43.97
11676;BME280;5894;42.768;23.404;2023-02-18T12:30:45;96112.34;;;14.35;43.22
11676;BME280;5894;42.768;23.404;2023-02-18T12:33:18;96088.47;;;14.26;43.29
11676;BME280;5894;42.768;23.404;2023-02-18T12:35:58;96098.00;;;14.36;43.57
11676;BME280;5894;42.768;23.404;2023-02-18T12:38:42;96097.59;;;14.43;42.86
11676;BME280;5894;42.768;23.404;2023-02-18T12:44:15;96087.13;;;14.63;42.93
11676;BME280;5894;42.768;23.404;2023-02-18T12:47:05;96081.94;;;14.67;42.58
11676;BME280;5894;42.768;23.404;2023-02-18T12:49:57;96069.59;;;14.80;42.61
11676;BME280;5894;42.768;23.404;2023-02-18T12:52:35;96051.94;;;14.75;42.70
11676;BME280;5894;42.768;23.404;2023-02-18T12:55:23;96077.47;;;15.05;41.75
11676;BME280;5894;42.768;23.404;2023-02-18T12:57:57;96077.81;;;15.04;41.07
11676;BME280;5894;42.768;23.404;2023-02-18T13:00:52;96074.19;;;15.09;41.05
11676;BME280;5894;42.768;23.404;2023-02-18T13:04:02;96077.72;;;15.30;41.44
11676;BME280;5894;42.768;23.404;2023-02-18T13:06:52;96074.25;;;15.38;40.44
11676;BME280;5894;42.768;23.404;2023-02-18T13:09:32;96079.09;;;15.45;40.58
11676;BME280;5894;42.768;23.404;2023-02-18T13:12:07;96040.38;;;15.26;40.27
11676;BME280;5894;42.768;23.404;2023-02-18T13:14:44;96079.50;;;15.64;39.84
11676;BME280;5894;42.768;23.404;2023-02-18T13:17:15;96085.81;;;15.80;39.61
11676;BME280;5894;42.768;23.404;2023-02-18T13:19:48;96049.75;;;15.70;38.86
11676;BME280;5894;42.768;23.404;2023-02-18T13:22:18;96076.09;;;15.84;39.06
11676;BME280;5894;42.768;23.404;2023-02-18T13:24:47;96069.53;;;15.82;39.01
11676;BME280;5894;42.768;23.404;2023-02-18T13:27:23;96069.78;;;15.68;38.74
11676;BME280;5894;42.768;23.404;2023-02-18T13:30:00;96080.66;;;15.84;38.95
11676;BME280;5894;42.768;23.404;2023-02-18T13:32:32;96079.97;;;15.66;39.42
11676;BME280;5894;42.768;23.404;2023-02-18T13:35:14;96076.22;;;15.58;39.54